sensor_id;sensor_type;location;lat;lon;timestamp;noise_LAeq;noise_LA_min;noise_LA_max;noise_LA01;noise_LA95
69613;Laerm;56819;52.382;4.758;2022-10-31T00:00:07;49.29;37.41;63.99;;
69613;Laerm;56819;52.382;4.758;2022-10-31T00:00:18;40.55;37.52;44.46;;
69613;Laerm;56819;52.382;4.758;2022-10-31T00:00:28;41.84;38.69;45.21;;
69613;Laerm;56819;52.382;4.758;2022-10-31T00:00:39;40.40;37.63;43.30;;
69613;Laerm;56819;52.382;4.758;2022-10-31T00:00:50;42.13;39.23;46.77;;
69613;Laerm;56819;52.382;4.758;2022-10-31T00:01:00;41.36;38.38;45.02;;
69613;Laerm;56819;52.382;4.758;2022-10-31T00:01:18;42.91;39.60;49.00;;
69613;Laerm;56819;52.382;4.758;2022-10-31T00:01:33;43.09;39.57;49.35;;
69613;Laerm;56819;52.382;4.758;2022-10-31T00:01:43;40.52;37.80;45.99;;
69613;Laerm;56819;52.382;4.758;2022-10-31T00:01:54;40.69;37.45;43.78;;
69613;Laerm;56819;52.382;4.758;2022-10-31T00:02:04;40.23;37.58;43.77;;
69613;Laerm;56819;52.382;4.758;2022-10-31T00:02:14;40.65;36.94;44.77;;
69613;Laerm;56819;52.382;4.758;2022-10-31T00:02:24;40.67;38.06;45.35;;
69613;Laerm;56819;52.382;4.758;2022-10-31T00:02:34;40.19;37.91;44.28;;
69613;Laerm;56819;52.382;4.758;2022-10-31T00:02:45;39.54;37.20;41.73;;
69613;Laerm;56819;52.382;4.758;2022-10-31T00:02:55;38.20;36.02;42.64;;
69613;Laerm;56819;52.382;4.758;2022-10-31T00:03:05;37.80;35.50;41.43;;
69613;Laerm;56819;52.382;4.758;2022-10-31T00:03:16;38.29;35.35;41.78;;
69613;Laerm;56819;52.382;4.758;2022-10-31T00:03:26;39.82;36.84;44.41;;
69613;Laerm;56819;52.382;4.758;2022-10-31T00:03:36;40.83;37.96;47.67;;
69613;Laerm;56819;52.382;4.758;2022-10-31T00:03:47;40.61;37.17;46.89;;
69613;Laerm;56819;52.382;4.758;2022-10-31T00:03:57;41.93;38.30;47.97;;
69613;Laerm;56819;52.382;4.758;2022-10-31T00:04:08;41.76;39.00;46.19;;
69613;Laerm;56819;52.382;4.758;2022-10-31T00:04:18;40.88;36.53;44.93;;
69613;Laerm;56819;52.382;4.758;2022-10-31T00:04:28;39.06;36.48;41.91;;
69613;Laerm;56819;52.382;4.758;2022-10-31T00:04:38;40.41;37.46;48.44;;
69613;Laerm;56819;52.382;4.758;2022-10-31T00:04:48;40.78;38.32;44.34;;
69613;Laerm;56819;52.382;4.758;2022-10-31T00:04:59;40.76;37.98;43.79;;
69613;Laerm;56819;52.382;4.758;2022-10-31T00:05:09;40.21;37.06;44.12;;
69613;Laerm;56819;52.382;4.758;2022-10-31T00:05:19;39.29;36.62;43.81;;
69613;Laerm;56819;52.382;4.758;2022-10-31T00:05:30;40.43;35.68;47.22;;
69613;Laerm;56819;52.382;4.758;2022-10-31T00:05:41;39.64;35.68;45.89;;
69613;Laerm;56819;52.382;4.758;2022-10-31T00:05:51;39.76;34.88;45.93;;
69613;Laerm;56819;52.382;4.758;2022-10-31T00:06:02;37.65;35.07;42.03;;
69613;Laerm;56819;52.382;4.758;2022-10-31T00:06:13;37.21;35.15;39.58;;
69613;Laerm;56819;52.382;4.758;2022-10-31T00:06:23;36.52;34.60;38.41;;
69613;Laerm;56819;52.382;4.758;2022-10-31T00:06:34;37.01;34.91;40.76;;
69613;Laerm;56819;52.382;4.758;2022-10-31T00:06:44;39.39;36.78;43.48;;
69613;Laerm;56819;52.382;4.758;2022-10-31T00:06:54;39.98;37.20;51.87;;
69613;Laerm;56819;52.382;4.758;2022-10-31T00:07:05;43.02;36.88;53.96;;
69613;Laerm;56819;52.382;4.758;2022-10-31T00:07:15;42.66;39.35;50.30;;
69613;Laerm;56819;52.382;4.758;2022-10-31T00:07:25;44.68;40.85;50.04;;
69613;Laerm;56819;52.382;4.758;2022-10-31T00:07:35;49.61;46.07;53.41;;
69613;Laerm;56819;52.382;4.758;2022-10-31T00:07:46;49.77;45.04;55.03;;
69613;Laerm;56819;52.382;4.758;2022-10-31T00:07:56;45.58;42.19;48.51;;
69613;Laerm;56819;52.382;4.758;2022-10-31T00:08:06;44.59;41.67;47.73;;
69613;Laerm;56819;52.382;4.758;2022-10-31T00:08:16;44.44;39.23;50.88;;
69613;Laerm;56819;52.382;4.758;2022-10-31T00:08:26;42.87;39.47;48.56;;
69613;Laerm;56819;52.382;4.758;2022-10-31T00:08:37;42.51;39.50;46.84;;
69613;Laerm;56819;52.382;4.758;2022-10-31T00:08:51;42.17;39.66;45.45;;
69613;Laerm;56819;52.382;4.758;2022-10-31T00:09:03;41.36;38.57;44.62;;
69613;Laerm;56819;52.382;4.758;2022-10-31T00:09:13;41.09;38.45;43.30;;
69613;Laerm;56819;52.382;4.758;2022-10-31T00:09:23;41.54;39.40;44.54;;
69613;Laerm;56819;52.382;4.758;2022-10-31T00:09:34;42.08;38.24;45.81;;
69613;Laerm;56819;52.382;4.758;2022-10-31T00:09:44;40.21;37.70;42.99;;
69613;Laerm;56819;52.382;4.758;2022-10-31T00:09:54;40.34;38.00;43.33;;
69613;Laerm;56819;52.382;4.758;2022-10-31T00:10:05;40.26;37.35;45.00;;
69613;Laerm;56819;52.382;4.758;2022-10-31T00:10:15;39.00;36.84;42.78;;
69613;Laerm;56819;52.382;4.758;2022-10-31T00:10:25;38.82;35.81;41.43;;
69613;Laerm;56819;52.382;4.758;2022-10-31T00:10:39;38.64;36.35;41.04;;
69613;Laerm;56819;52.382;4.758;2022-10-31T00:10:49;39.29;35.82;42.11;;
69613;Laerm;56819;52.382;4.758;2022-10-31T00:11:00;39.29;37.07;42.39;;
69613;Laerm;56819;52.382;4.758;2022-10-31T00:11:10;39.72;36.79;45.53;;
69613;Laerm;56819;52.382;4.758;2022-10-31T00:11:21;39.96;37.18;42.71;;
69613;Laerm;56819;52.382;4.758;2022-10-31T00:11:31;39.99;38.11;42.12;;
69613;Laerm;56819;52.382;4.758;2022-10-31T00:11:42;41.94;38.36;52.68;;
69613;Laerm;56819;52.382;4.758;2022-10-31T00:11:52;42.00;38.29;45.83;;
69613;Laerm;56819;52.382;4.758;2022-10-31T00:12:02;40.67;38.54;43.94;;
69613;Laerm;56819;52.382;4.758;2022-10-31T00:12:12;42.75;39.70;46.01;;
69613;Laerm;56819;52.382;4.758;2022-10-31T00:12:23;41.43;37.27;45.49;;
69613;Laerm;56819;52.382;4.758;2022-10-31T00:12:33;40.76;36.57;44.65;;
69613;Laerm;56819;52.382;4.758;2022-10-31T00:12:43;40.51;37.34;44.10;;
69613;Laerm;56819;52.382;4.758;2022-10-31T00:12:53;41.01;37.06;46.15;;
69613;Laerm;56819;52.382;4.758;2022-10-31T00:13:04;38.70;35.31;42.90;;
69613;Laerm;56819;52.382;4.758;2022-10-31T00:13:14;37.88;34.92;40.45;;
69613;Laerm;56819;52.382;4.758;2022-10-31T00:13:25;38.52;34.76;43.06;;
69613;Laerm;56819;52.382;4.758;2022-10-31T00:13:35;40.15;36.26;45.67;;
69613;Laerm;56819;52.382;4.758;2022-10-31T00:13:45;39.80;36.64;46.29;;
69613;Laerm;56819;52.382;4.758;2022-10-31T00:13:56;39.32;36.21;42.48;;
69613;Laerm;56819;52.382;4.758;2022-10-31T00:14:07;39.77;36.54;43.92;;
69613;Laerm;56819;52.382;4.758;2022-10-31T00:14:17;39.88;36.56;43.86;;
69613;Laerm;56819;52.382;4.758;2022-10-31T00:14:27;38.52;35.77;41.78;;
69613;Laerm;56819;52.382;4.758;2022-10-31T00:14:37;39.49;36.54;43.40;;
69613;Laerm;56819;52.382;4.758;2022-10-31T00:14:48;39.02;35.79;42.44;;
69613;Laerm;56819;52.382;4.758;2022-10-31T00:14:58;39.81;36.20;46.10;;
69613;Laerm;56819;52.382;4.758;2022-10-31T00:15:08;39.60;36.52;44.14;;
69613;Laerm;56819;52.382;4.758;2022-10-31T00:15:18;38.33;35.42;42.85;;
69613;Laerm;56819;52.382;4.758;2022-10-31T00:15:29;38.04;35.31;42.93;;
69613;Laerm;56819;52.382;4.758;2022-10-31T00:15:39;37.38;35.30;39.39;;
69613;Laerm;56819;52.382;4.758;2022-10-31T00:15:49;39.66;37.10;42.97;;
69613;Laerm;56819;52.382;4.758;2022-10-31T00:16:00;42.13;39.05;46.07;;
69613;Laerm;56819;52.382;4.758;2022-10-31T00:16:14;44.54;37.43;58.35;;
69613;Laerm;56819;52.382;4.758;2022-10-31T00:16:25;42.47;37.62;48.87;;
69613;Laerm;56819;52.382;4.758;2022-10-31T00:16:35;41.94;38.78;45.79;;
69613;Laerm;56819;52.382;4.758;2022-10-31T00:16:45;42.74;39.46;46.14;;
69613;Laerm;56819;52.382;4.758;2022-10-31T00:16:56;41.74;38.99;45.34;;
69613;Laerm;56819;52.382;4.758;2022-10-31T00:17:06;40.93;38.09;44.03;;
69613;Laerm;56819;52.382;4.758;2022-10-31T00:17:16;39.80;37.66;42.63;;
69613;Laerm;56819;52.382;4.758;2022-10-31T00:17:27;41.54;37.90;44.94;;
69613;Laerm;56819;52.382;4.758;2022-10-31T00:17:37;41.17;38.18;44.61;;
69613;Laerm;56819;52.382;4.758;2022-10-31T00:17:47;43.01;37.71;60.40;;
69613;Laerm;56819;52.382;4.758;2022-10-31T00:17:58;40.84;37.88;46.15;;
69613;Laerm;56819;52.382;4.758;2022-10-31T00:18:08;42.23;38.28;50.81;;
69613;Laerm;56819;52.382;4.758;2022-10-31T00:18:19;40.46;37.50;43.46;;
69613;Laerm;56819;52.382;4.758;2022-10-31T00:18:29;42.25;38.86;47.68;;
69613;Laerm;56819;52.382;4.758;2022-10-31T00:18:39;44.14;40.75;48.41;;
69613;Laerm;56819;52.382;4.758;2022-10-31T00:18:54;45.69;41.81;51.32;;
69613;Laerm;56819;52.382;4.758;2022-10-31T00:19:06;48.79;42.33;53.83;;
69613;Laerm;56819;52.382;4.758;2022-10-31T00:19:16;47.32;43.15;51.81;;
69613;Laerm;56819;52.382;4.758;2022-10-31T00:19:26;43.91;40.51;47.23;;
69613;Laerm;56819;52.382;4.758;2022-10-31T00:19:37;42.16;38.74;46.29;;
69613;Laerm;56819;52.382;4.758;2022-10-31T00:19:47;42.40;39.28;45.43;;
69613;Laerm;56819;52.382;4.758;2022-10-31T00:19:57;40.70;38.36;45.32;;
69613;Laerm;56819;52.382;4.758;2022-10-31T00:20:08;41.82;37.82;47.45;;
69613;Laerm;56819;52.382;4.758;2022-10-31T00:20:18;40.43;37.84;46.75;;
69613;Laerm;56819;52.382;4.758;2022-10-31T00:20:29;42.37;38.60;48.77;;
69613;Laerm;56819;52.382;4.758;2022-10-31T00:20:39;40.20;37.42;44.49;;
69613;Laerm;56819;52.382;4.758;2022-10-31T00:20:57;43.34;38.90;47.95;;
69613;Laerm;56819;52.382;4.758;2022-10-31T00:21:07;44.26;40.54;48.22;;
69613;Laerm;56819;52.382;4.758;2022-10-31T00:21:18;50.41;42.44;58.28;;
69613;Laerm;56819;52.382;4.758;2022-10-31T00:21:29;47.51;41.68;54.58;;
69613;Laerm;56819;52.382;4.758;2022-10-31T00:21:39;43.53;40.05;48.04;;
69613;Laerm;56819;52.382;4.758;2022-10-31T00:21:51;41.55;37.81;44.88;;
69613;Laerm;56819;52.382;4.758;2022-10-31T00:22:01;44.15;39.92;48.62;;
69613;Laerm;56819;52.382;4.758;2022-10-31T00:22:11;42.44;38.04;46.40;;
69613;Laerm;56819;52.382;4.758;2022-10-31T00:22:22;41.20;38.33;45.41;;
69613;Laerm;56819;52.382;4.758;2022-10-31T00:22:32;41.11;39.16;43.89;;
69613;Laerm;56819;52.382;4.758;2022-10-31T00:22:42;43.45;38.84;47.84;;
69613;Laerm;56819;52.382;4.758;2022-10-31T00:22:53;45.14;42.22;48.80;;
69613;Laerm;56819;52.382;4.758;2022-10-31T00:23:03;45.76;43.04;48.18;;
69613;Laerm;56819;52.382;4.758;2022-10-31T00:23:13;47.71;42.64;54.36;;
69613;Laerm;56819;52.382;4.758;2022-10-31T00:23:23;50.19;45.68;56.08;;
69613;Laerm;56819;52.382;4.758;2022-10-31T00:23:34;46.45;42.82;50.85;;
69613;Laerm;56819;52.382;4.758;2022-10-31T00:23:44;52.09;41.90;64.36;;
69613;Laerm;56819;52.382;4.758;2022-10-31T00:23:54;55.54;44.86;65.85;;
69613;Laerm;56819;52.382;4.758;2022-10-31T00:24:05;58.44;46.94;65.46;;
69613;Laerm;56819;52.382;4.758;2022-10-31T00:24:15;48.12;41.24;53.48;;
69613;Laerm;56819;52.382;4.758;2022-10-31T00:24:25;47.67;42.22;53.62;;
69613;Laerm;56819;52.382;4.758;2022-10-31T00:24:35;48.28;42.11;54.31;;
69613;Laerm;56819;52.382;4.758;2022-10-31T00:24:46;48.95;41.18;56.05;;
69613;Laerm;56819;52.382;4.758;2022-10-31T00:24:56;50.30;44.43;55.33;;
69613;Laerm;56819;52.382;4.758;2022-10-31T00:25:06;46.54;42.54;51.20;;
69613;Laerm;56819;52.382;4.758;2022-10-31T00:25:17;43.49;40.50;46.97;;
69613;Laerm;56819;52.382;4.758;2022-10-31T00:25:27;43.68;40.93;47.13;;
69613;Laerm;56819;52.382;4.758;2022-10-31T00:25:38;44.05;41.21;47.18;;
69613;Laerm;56819;52.382;4.758;2022-10-31T00:25:49;42.52;38.33;47.96;;
69613;Laerm;56819;52.382;4.758;2022-10-31T00:26:00;40.82;37.68;44.67;;
69613;Laerm;56819;52.382;4.758;2022-10-31T00:26:10;39.70;36.80;44.42;;
69613;Laerm;56819;52.382;4.758;2022-10-31T00:26:21;40.00;36.47;51.64;;
69613;Laerm;56819;52.382;4.758;2022-10-31T00:26:31;39.07;36.13;43.08;;
69613;Laerm;56819;52.382;4.758;2022-10-31T00:26:41;40.13;37.11;43.52;;
69613;Laerm;56819;52.382;4.758;2022-10-31T00:26:51;39.58;36.73;42.82;;
69613;Laerm;56819;52.382;4.758;2022-10-31T00:27:02;40.52;37.50;44.38;;
69613;Laerm;56819;52.382;4.758;2022-10-31T00:27:12;42.30;40.12;44.85;;
69613;Laerm;56819;52.382;4.758;2022-10-31T00:27:22;42.28;38.49;48.04;;
69613;Laerm;56819;52.382;4.758;2022-10-31T00:27:32;42.35;39.32;45.71;;
69613;Laerm;56819;52.382;4.758;2022-10-31T00:27:42;41.13;38.67;45.59;;
69613;Laerm;56819;52.382;4.758;2022-10-31T00:27:53;42.95;38.19;48.00;;
69613;Laerm;56819;52.382;4.758;2022-10-31T00:28:04;40.95;37.55;47.62;;
69613;Laerm;56819;52.382;4.758;2022-10-31T00:28:14;40.24;36.76;44.08;;
69613;Laerm;56819;52.382;4.758;2022-10-31T00:28:25;40.65;37.08;46.88;;
69613;Laerm;56819;52.382;4.758;2022-10-31T00:28:35;39.51;37.02;44.67;;
69613;Laerm;56819;52.382;4.758;2022-10-31T00:28:45;39.93;36.93;43.44;;
69613;Laerm;56819;52.382;4.758;2022-10-31T00:28:56;40.02;37.36;42.02;;
69613;Laerm;56819;52.382;4.758;2022-10-31T00:29:07;41.10;38.08;44.02;;
69613;Laerm;56819;52.382;4.758;2022-10-31T00:29:17;39.81;36.82;43.41;;
69613;Laerm;56819;52.382;4.758;2022-10-31T00:29:27;39.51;36.43;43.82;;
69613;Laerm;56819;52.382;4.758;2022-10-31T00:29:37;39.07;36.05;41.81;;
69613;Laerm;56819;52.382;4.758;2022-10-31T00:29:47;38.31;35.93;40.44;;
69613;Laerm;56819;52.382;4.758;2022-10-31T00:29:58;38.87;36.75;41.20;;
69613;Laerm;56819;52.382;4.758;2022-10-31T00:30:08;46.19;36.56;59.47;;
69613;Laerm;56819;52.382;4.758;2022-10-31T00:30:18;39.75;36.84;43.37;;
69613;Laerm;56819;52.382;4.758;2022-10-31T00:30:29;39.84;36.82;43.72;;
69613;Laerm;56819;52.382;4.758;2022-10-31T00:30:39;39.71;36.96;42.14;;
69613;Laerm;56819;52.382;4.758;2022-10-31T00:30:49;39.53;36.37;42.34;;
69613;Laerm;56819;52.382;4.758;2022-10-31T00:31:03;39.12;36.33;41.84;;
69613;Laerm;56819;52.382;4.758;2022-10-31T00:31:14;39.90;36.80;42.99;;
69613;Laerm;56819;52.382;4.758;2022-10-31T00:31:24;40.46;37.65;44.38;;
69613;Laerm;56819;52.382;4.758;2022-10-31T00:31:34;40.21;37.82;42.70;;
69613;Laerm;56819;52.382;4.758;2022-10-31T00:31:44;41.95;37.90;45.28;;
69613;Laerm;56819;52.382;4.758;2022-10-31T00:31:55;41.36;38.28;45.19;;
69613;Laerm;56819;52.382;4.758;2022-10-31T00:32:05;40.58;37.54;45.46;;
69613;Laerm;56819;52.382;4.758;2022-10-31T00:32:15;42.73;38.44;47.95;;
69613;Laerm;56819;52.382;4.758;2022-10-31T00:32:28;41.14;38.02;47.31;;
69613;Laerm;56819;52.382;4.758;2022-10-31T00:32:38;41.28;38.49;44.97;;
69613;Laerm;56819;52.382;4.758;2022-10-31T00:32:48;42.88;37.97;48.45;;
69613;Laerm;56819;52.382;4.758;2022-10-31T00:32:58;40.10;37.53;43.95;;
69613;Laerm;56819;52.382;4.758;2022-10-31T00:33:09;40.15;36.85;43.11;;
69613;Laerm;56819;52.382;4.758;2022-10-31T00:33:19;41.21;37.40;44.81;;
69613;Laerm;56819;52.382;4.758;2022-10-31T00:33:29;42.00;39.15;45.15;;
69613;Laerm;56819;52.382;4.758;2022-10-31T00:33:40;41.87;38.13;46.72;;
69613;Laerm;56819;52.382;4.758;2022-10-31T00:33:51;42.17;37.70;45.84;;
69613;Laerm;56819;52.382;4.758;2022-10-31T00:34:01;42.32;37.16;46.27;;
69613;Laerm;56819;52.382;4.758;2022-10-31T00:34:12;41.07;37.97;46.33;;
69613;Laerm;56819;52.382;4.758;2022-10-31T00:34:23;41.95;39.41;45.03;;
69613;Laerm;56819;52.382;4.758;2022-10-31T00:34:33;40.54;36.81;46.47;;
69613;Laerm;56819;52.382;4.758;2022-10-31T00:34:43;40.57;36.15;45.24;;
69613;Laerm;56819;52.382;4.758;2022-10-31T00:34:53;39.64;37.37;42.71;;
69613;Laerm;56819;52.382;4.758;2022-10-31T00:35:04;38.05;35.40;41.23;;
69613;Laerm;56819;52.382;4.758;2022-10-31T00:35:14;41.60;35.49;54.52;;
69613;Laerm;56819;52.382;4.758;2022-10-31T00:35:25;44.83;36.14;57.54;;
69613;Laerm;56819;52.382;4.758;2022-10-31T00:35:35;43.16;34.89;55.90;;
69613;Laerm;56819;52.382;4.758;2022-10-31T00:35:51;43.58;35.50;53.63;;
69613;Laerm;56819;52.382;4.758;2022-10-31T00:36:01;45.22;35.26;60.65;;
69613;Laerm;56819;52.382;4.758;2022-10-31T00:36:13;37.90;35.02;42.76;;
69613;Laerm;56819;52.382;4.758;2022-10-31T00:36:23;39.12;35.88;45.83;;
69613;Laerm;56819;52.382;4.758;2022-10-31T00:36:33;37.94;35.39;41.46;;
69613;Laerm;56819;52.382;4.758;2022-10-31T00:36:44;37.18;34.73;40.64;;
69613;Laerm;56819;52.382;4.758;2022-10-31T00:36:54;37.28;35.12;40.72;;
69613;Laerm;56819;52.382;4.758;2022-10-31T00:37:04;38.22;35.37;40.57;;
69613;Laerm;56819;52.382;4.758;2022-10-31T00:37:14;39.47;35.75;45.11;;
69613;Laerm;56819;52.382;4.758;2022-10-31T00:37:24;38.77;36.84;41.72;;
69613;Laerm;56819;52.382;4.758;2022-10-31T00:37:35;40.29;37.25;44.54;;
69613;Laerm;56819;52.382;4.758;2022-10-31T00:37:45;41.17;38.39;43.67;;
69613;Laerm;56819;52.382;4.758;2022-10-31T00:37:55;43.90;40.35;51.43;;
69613;Laerm;56819;52.382;4.758;2022-10-31T00:38:05;46.98;41.56;52.16;;
69613;Laerm;56819;52.382;4.758;2022-10-31T00:38:16;47.96;44.03;52.44;;
69613;Laerm;56819;52.382;4.758;2022-10-31T00:38:26;44.96;42.19;48.79;;
69613;Laerm;56819;52.382;4.758;2022-10-31T00:38:36;45.27;40.94;50.26;;
69613;Laerm;56819;52.382;4.758;2022-10-31T00:38:46;42.86;38.55;47.44;;
69613;Laerm;56819;52.382;4.758;2022-10-31T00:38:57;42.80;39.76;48.05;;
69613;Laerm;56819;52.382;4.758;2022-10-31T00:39:08;42.64;40.02;46.58;;
69613;Laerm;56819;52.382;4.758;2022-10-31T00:39:18;42.14;38.40;49.00;;
69613;Laerm;56819;52.382;4.758;2022-10-31T00:39:28;41.94;38.47;45.88;;
69613;Laerm;56819;52.382;4.758;2022-10-31T00:39:39;41.17;38.79;45.50;;
69613;Laerm;56819;52.382;4.758;2022-10-31T00:39:49;40.49;37.65;43.12;;
69613;Laerm;56819;52.382;4.758;2022-10-31T00:39:59;40.19;37.07;43.44;;
69613;Laerm;56819;52.382;4.758;2022-10-31T00:40:10;39.49;36.74;42.41;;
69613;Laerm;56819;52.382;4.758;2022-10-31T00:40:20;39.58;36.91;42.57;;
69613;Laerm;56819;52.382;4.758;2022-10-31T00:40:30;40.21;36.86;44.67;;
69613;Laerm;56819;52.382;4.758;2022-10-31T00:40:40;39.61;35.94;42.57;;
69613;Laerm;56819;52.382;4.758;2022-10-31T00:40:51;37.98;34.74;41.39;;
69613;Laerm;56819;52.382;4.758;2022-10-31T00:41:01;38.72;35.30;42.42;;
69613;Laerm;56819;52.382;4.758;2022-10-31T00:41:12;38.17;35.52;40.72;;
69613;Laerm;56819;52.382;4.758;2022-10-31T00:41:22;38.85;36.46;42.83;;
69613;Laerm;56819;52.382;4.758;2022-10-31T00:41:32;38.99;36.18;42.80;;
69613;Laerm;56819;52.382;4.758;2022-10-31T00:41:43;38.64;35.99;40.94;;
69613;Laerm;56819;52.382;4.758;2022-10-31T00:41:53;38.96;36.42;41.58;;
69613;Laerm;56819;52.382;4.758;2022-10-31T00:42:03;40.13;37.79;42.65;;
69613;Laerm;56819;52.382;4.758;2022-10-31T00:42:14;40.27;37.97;43.83;;
69613;Laerm;56819;52.382;4.758;2022-10-31T00:42:24;39.20;36.24;43.49;;
69613;Laerm;56819;52.382;4.758;2022-10-31T00:42:34;38.48;36.02;42.68;;
69613;Laerm;56819;52.382;4.758;2022-10-31T00:42:45;40.96;35.83;48.52;;
69613;Laerm;56819;52.382;4.758;2022-10-31T00:42:55;39.18;36.33;41.35;;
69613;Laerm;56819;52.382;4.758;2022-10-31T00:43:05;39.36;36.39;43.41;;
69613;Laerm;56819;52.382;4.758;2022-10-31T00:43:15;42.39;38.22;48.13;;
69613;Laerm;56819;52.382;4.758;2022-10-31T00:43:25;41.78;38.10;45.01;;
69613;Laerm;56819;52.382;4.758;2022-10-31T00:43:36;42.16;36.89;47.00;;
69613;Laerm;56819;52.382;4.758;2022-10-31T00:43:46;40.75;37.56;44.50;;
69613;Laerm;56819;52.382;4.758;2022-10-31T00:43:56;41.39;37.55;48.42;;
69613;Laerm;56819;52.382;4.758;2022-10-31T00:44:07;38.28;35.14;42.03;;
69613;Laerm;56819;52.382;4.758;2022-10-31T00:44:17;39.41;36.36;43.48;;
69613;Laerm;56819;52.382;4.758;2022-10-31T00:44:27;39.87;36.07;43.58;;
69613;Laerm;56819;52.382;4.758;2022-10-31T00:44:37;39.70;36.63;44.78;;
69613;Laerm;56819;52.382;4.758;2022-10-31T00:44:48;38.41;35.40;41.73;;
69613;Laerm;56819;52.382;4.758;2022-10-31T00:44:58;37.98;35.54;42.11;;
69613;Laerm;56819;52.382;4.758;2022-10-31T00:45:09;38.11;35.23;43.78;;
69613;Laerm;56819;52.382;4.758;2022-10-31T00:45:19;38.92;35.57;46.12;;
69613;Laerm;56819;52.382;4.758;2022-10-31T00:45:29;37.28;34.98;41.13;;
69613;Laerm;56819;52.382;4.758;2022-10-31T00:45:40;38.51;35.64;42.17;;
69613;Laerm;56819;52.382;4.758;2022-10-31T00:45:51;39.80;36.11;44.26;;
69613;Laerm;56819;52.382;4.758;2022-10-31T00:46:01;39.81;36.14;45.25;;
69613;Laerm;56819;52.382;4.758;2022-10-31T00:46:12;39.64;37.00;45.50;;
69613;Laerm;56819;52.382;4.758;2022-10-31T00:46:22;42.46;38.18;47.36;;
69613;Laerm;56819;52.382;4.758;2022-10-31T00:46:32;40.00;36.64;44.84;;
69613;Laerm;56819;52.382;4.758;2022-10-31T00:46:43;38.69;36.17;40.91;;
69613;Laerm;56819;52.382;4.758;2022-10-31T00:46:53;40.01;37.23;43.73;;
69613;Laerm;56819;52.382;4.758;2022-10-31T00:47:03;39.88;37.18;43.28;;
69613;Laerm;56819;52.382;4.758;2022-10-31T00:47:13;41.46;38.36;46.75;;
69613;Laerm;56819;52.382;4.758;2022-10-31T00:47:23;41.41;38.04;45.08;;
69613;Laerm;56819;52.382;4.758;2022-10-31T00:47:34;41.31;38.38;43.99;;
69613;Laerm;56819;52.382;4.758;2022-10-31T00:47:44;40.91;37.67;45.81;;
69613;Laerm;56819;52.382;4.758;2022-10-31T00:47:54;41.17;38.14;43.60;;
69613;Laerm;56819;52.382;4.758;2022-10-31T00:48:05;40.71;38.23;43.55;;
69613;Laerm;56819;52.382;4.758;2022-10-31T00:48:15;42.37;39.30;46.91;;
69613;Laerm;56819;52.382;4.758;2022-10-31T00:48:25;41.25;38.39;44.98;;
69613;Laerm;56819;52.382;4.758;2022-10-31T00:48:36;41.36;38.36;44.66;;
69613;Laerm;56819;52.382;4.758;2022-10-31T00:48:46;40.20;37.38;42.97;;
69613;Laerm;56819;52.382;4.758;2022-10-31T00:48:56;38.67;36.67;41.24;;
69613;Laerm;56819;52.382;4.758;2022-10-31T00:49:06;40.18;37.23;43.87;;
69613;Laerm;56819;52.382;4.758;2022-10-31T00:49:16;40.12;37.20;43.65;;
69613;Laerm;56819;52.382;4.758;2022-10-31T00:49:27;41.69;38.54;45.87;;
69613;Laerm;56819;52.382;4.758;2022-10-31T00:49:37;41.51;38.36;45.42;;
69613;Laerm;56819;52.382;4.758;2022-10-31T00:49:47;41.15;38.03;45.43;;
69613;Laerm;56819;52.382;4.758;2022-10-31T00:49:57;40.82;37.22;43.97;;
69613;Laerm;56819;52.382;4.758;2022-10-31T00:50:08;42.03;37.78;44.97;;
69613;Laerm;56819;52.382;4.758;2022-10-31T00:50:18;40.80;38.06;44.25;;
69613;Laerm;56819;52.382;4.758;2022-10-31T00:50:28;40.69;37.31;44.90;;
69613;Laerm;56819;52.382;4.758;2022-10-31T00:50:39;40.16;36.86;42.81;;
69613;Laerm;56819;52.382;4.758;2022-10-31T00:50:49;39.56;36.66;42.04;;
69613;Laerm;56819;52.382;4.758;2022-10-31T00:50:59;38.44;35.38;42.22;;
69613;Laerm;56819;52.382;4.758;2022-10-31T00:51:09;36.98;34.71;39.66;;
69613;Laerm;56819;52.382;4.758;2022-10-31T00:51:20;35.85;33.53;38.84;;
69613;Laerm;56819;52.382;4.758;2022-10-31T00:51:30;35.16;33.22;37.70;;
69613;Laerm;56819;52.382;4.758;2022-10-31T00:51:40;35.83;33.34;41.70;;
69613;Laerm;56819;52.382;4.758;2022-10-31T00:51:51;36.16;34.16;38.42;;
69613;Laerm;56819;52.382;4.758;2022-10-31T00:52:01;36.29;33.85;38.28;;
69613;Laerm;56819;52.382;4.758;2022-10-31T00:52:11;37.18;34.90;39.45;;
69613;Laerm;56819;52.382;4.758;2022-10-31T00:52:21;38.99;34.65;42.42;;
69613;Laerm;56819;52.382;4.758;2022-10-31T00:52:32;40.25;36.52;44.67;;
69613;Laerm;56819;52.382;4.758;2022-10-31T00:52:42;39.58;36.85;45.51;;
69613;Laerm;56819;52.382;4.758;2022-10-31T00:52:52;39.63;37.11;44.21;;
69613;Laerm;56819;52.382;4.758;2022-10-31T00:53:02;38.53;36.05;41.62;;
69613;Laerm;56819;52.382;4.758;2022-10-31T00:53:13;39.23;35.96;44.03;;
69613;Laerm;56819;52.382;4.758;2022-10-31T00:53:23;37.66;34.74;40.83;;
69613;Laerm;56819;52.382;4.758;2022-10-31T00:53:34;37.30;33.89;41.04;;
69613;Laerm;56819;52.382;4.758;2022-10-31T00:53:44;37.01;33.55;41.57;;
69613;Laerm;56819;52.382;4.758;2022-10-31T00:53:54;36.09;33.58;39.57;;
69613;Laerm;56819;52.382;4.758;2022-10-31T00:54:05;35.34;33.48;37.14;;
69613;Laerm;56819;52.382;4.758;2022-10-31T00:54:15;35.70;33.40;39.62;;
69613;Laerm;56819;52.382;4.758;2022-10-31T00:54:25;37.73;34.67;41.47;;
69613;Laerm;56819;52.382;4.758;2022-10-31T00:54:35;38.71;34.95;42.84;;
69613;Laerm;56819;52.382;4.758;2022-10-31T00:54:45;40.58;36.14;45.62;;
69613;Laerm;56819;52.382;4.758;2022-10-31T00:54:56;43.49;37.18;50.15;;
69613;Laerm;56819;52.382;4.758;2022-10-31T00:55:06;41.09;37.19;45.82;;
69613;Laerm;56819;52.382;4.758;2022-10-31T00:55:16;43.95;39.55;51.56;;
69613;Laerm;56819;52.382;4.758;2022-10-31T00:55:27;41.44;38.89;44.53;;
69613;Laerm;56819;52.382;4.758;2022-10-31T00:55:37;41.57;37.19;45.52;;
69613;Laerm;56819;52.382;4.758;2022-10-31T00:55:47;40.12;35.18;47.60;;
69613;Laerm;56819;52.382;4.758;2022-10-31T00:55:58;37.13;34.64;39.76;;
69613;Laerm;56819;52.382;4.758;2022-10-31T00:56:08;38.49;35.64;42.60;;
69613;Laerm;56819;52.382;4.758;2022-10-31T00:56:18;39.57;36.16;43.21;;
69613;Laerm;56819;52.382;4.758;2022-10-31T00:56:28;37.23;33.72;40.60;;
69613;Laerm;56819;52.382;4.758;2022-10-31T00:56:39;35.72;33.66;38.00;;
69613;Laerm;56819;52.382;4.758;2022-10-31T00:56:49;36.57;34.68;38.37;;
69613;Laerm;56819;52.382;4.758;2022-10-31T00:56:59;37.77;34.77;43.09;;
69613;Laerm;56819;52.382;4.758;2022-10-31T00:57:09;37.89;34.64;40.84;;
69613;Laerm;56819;52.382;4.758;2022-10-31T00:57:20;38.12;34.94;40.43;;
69613;Laerm;56819;52.382;4.758;2022-10-31T00:57:30;38.58;35.39;43.06;;
69613;Laerm;56819;52.382;4.758;2022-10-31T00:57:40;39.03;34.81;42.94;;
69613;Laerm;56819;52.382;4.758;2022-10-31T00:57:51;40.33;37.31;43.67;;
69613;Laerm;56819;52.382;4.758;2022-10-31T00:58:01;41.82;38.36;45.40;;
69613;Laerm;56819;52.382;4.758;2022-10-31T00:58:11;41.08;38.77;43.49;;
69613;Laerm;56819;52.382;4.758;2022-10-31T00:58:21;40.56;37.83;44.43;;
69613;Laerm;56819;52.382;4.758;2022-10-31T00:58:32;41.17;37.54;44.23;;
69613;Laerm;56819;52.382;4.758;2022-10-31T00:58:42;40.88;37.53;43.92;;